createdAt,value
2017-05-18T00:00:23.132Z,1000.7
2017-05-18T00:01:03.638Z,1000.76
2017-05-18T00:01:44.141Z,1000.73
2017-05-18T00:02:24.634Z,1000.73
2017-05-18T00:03:05.131Z,1000.71
2017-05-18T00:03:45.630Z,1000.72
2017-05-18T00:04:26.140Z,1000.7
2017-05-18T00:05:06.625Z,1000.7
2017-05-18T00:05:47.128Z,1000.69
2017-05-18T00:06:27.616Z,1000.7
2017-05-18T00:07:08.946Z,1000.69
2017-05-18T00:07:50.340Z,1000.7
2017-05-18T00:08:30.831Z,1000.68
2017-05-18T00:09:12.234Z,1000.67
2017-05-18T00:09:52.735Z,1000.67
2017-05-18T00:10:33.281Z,1000.62
2017-05-18T00:11:13.769Z,1000.63
2017-05-18T00:11:54.267Z,1000.6
2017-05-18T00:12:34.762Z,1000.61
2017-05-18T00:13:15.244Z,1000.64
2017-05-18T00:13:55.730Z,1000.6
2017-05-18T00:14:36.208Z,1000.57
2017-05-18T00:15:16.718Z,1000.58
2017-05-18T00:15:57.209Z,1000.6
2017-05-18T00:16:37.701Z,1000.59
2017-05-18T00:17:18.201Z,1000.59
2017-05-18T00:17:58.683Z,1000.61
2017-05-18T00:18:39.196Z,1000.6
2017-05-18T00:19:19.669Z,1000.59
2017-05-18T00:20:00.166Z,1000.55
2017-05-18T00:20:40.694Z,1000.59
2017-05-18T00:21:21.738Z,1000.6
2017-05-18T00:22:02.248Z,1000.58
2017-05-18T00:22:42.741Z,1000.57
2017-05-18T00:23:23.244Z,1000.61
2017-05-18T00:24:03.729Z,1000.63
2017-05-18T00:24:44.220Z,1000.67
2017-05-18T00:25:24.713Z,1000.69
2017-05-18T00:26:06.023Z,1000.68
2017-05-18T00:26:46.499Z,1000.64
2017-05-18T00:27:27.011Z,1000.68
2017-05-18T00:28:07.506Z,1000.7
2017-05-18T00:28:48.004Z,1000.71
2017-05-18T00:29:28.490Z,1000.7
2017-05-18T00:30:08.984Z,1000.72
2017-05-18T00:30:50.152Z,1000.68
2017-05-18T00:31:30.638Z,1000.7
2017-05-18T00:32:11.146Z,1000.66
2017-05-18T00:32:51.634Z,1000.68
2017-05-18T00:33:32.130Z,1000.68
2017-05-18T00:34:12.618Z,1000.67
2017-05-18T00:34:53.112Z,1000.69
2017-05-18T00:35:33.610Z,1000.68
2017-05-18T00:36:14.842Z,1000.66
2017-05-18T00:36:55.337Z,1000.71
2017-05-18T00:37:35.830Z,1000.68
2017-05-18T00:38:16.933Z,1000.64
2017-05-18T00:38:57.426Z,1000.65
2017-05-18T00:39:37.920Z,1000.63
2017-05-18T00:40:19.148Z,1000.64
2017-05-18T00:40:59.637Z,1000.6
2017-05-18T00:41:40.145Z,1000.62
2017-05-18T00:42:20.674Z,1000.58
2017-05-18T00:43:01.167Z,1000.6
2017-05-18T00:43:41.641Z,1000.57
2017-05-18T00:44:22.735Z,1000.59
2017-05-18T00:45:03.241Z,1000.57
2017-05-18T00:45:43.719Z,1000.57
2017-05-18T00:46:24.211Z,1000.56
2017-05-18T00:47:04.708Z,1000.55
2017-05-18T00:47:45.192Z,1000.57
2017-05-18T00:48:26.356Z,1000.54
2017-05-18T00:49:06.825Z,1000.54
2017-05-18T00:49:47.395Z,1000.54
2017-05-18T00:50:28.524Z,1000.56
2017-05-18T00:51:09.022Z,1000.54
2017-05-18T00:51:50.339Z,1000.54
2017-05-18T00:52:30.823Z,1000.53
2017-05-18T00:53:11.319Z,1000.54
2017-05-18T00:53:51.807Z,1000.54
2017-05-18T00:54:32.950Z,1000.52
2017-05-18T00:55:13.445Z,1000.54
2017-05-18T00:55:53.946Z,1000.59
2017-05-18T00:56:34.443Z,1000.55
2017-05-18T00:57:14.930Z,1000.59
2017-05-18T00:57:56.162Z,1000.61
2017-05-18T00:58:36.668Z,1000.63
2017-05-18T00:59:17.158Z,1000.59
2017-05-18T00:59:57.647Z,1000.65
2017-05-18T01:00:38.661Z,1000.62
2017-05-18T01:01:19.928Z,1000.67
2017-05-18T01:02:00.424Z,1000.7
2017-05-18T01:02:40.909Z,1000.69
2017-05-18T01:03:21.402Z,1000.68
2017-05-18T01:04:02.664Z,1000.64
2017-05-18T01:04:43.196Z,1000.66
2017-05-18T01:05:23.737Z,1000.64
2017-05-18T01:06:04.225Z,1000.63
2017-05-18T01:06:44.708Z,1000.65
2017-05-18T01:07:25.189Z,1000.65
2017-05-18T01:08:05.720Z,1000.66
2017-05-18T01:08:46.224Z,1000.65
2017-05-18T01:09:26.718Z,1000.65
2017-05-18T01:10:08.164Z,1000.67
2017-05-18T01:10:48.625Z,1000.69
2017-05-18T01:11:29.141Z,1000.7
2017-05-18T01:12:10.257Z,1000.7
2017-05-18T01:12:50.772Z,1000.72
2017-05-18T01:13:31.265Z,1000.71
2017-05-18T01:14:11.752Z,1000.7
2017-05-18T01:14:53.029Z,1000.7
2017-05-18T01:15:33.526Z,1000.68
2017-05-18T01:16:14.759Z,1000.66
2017-05-18T01:16:55.266Z,1000.68
2017-05-18T01:17:35.757Z,1000.67
2017-05-18T01:18:16.264Z,1000.68
2017-05-18T01:18:56.750Z,1000.68
2017-05-18T01:19:37.246Z,1000.71
2017-05-18T01:20:17.739Z,1000.72
2017-05-18T01:20:58.230Z,1000.68
2017-05-18T01:21:38.727Z,1000.7
2017-05-18T01:22:19.217Z,1000.72
2017-05-18T01:22:59.714Z,1000.72
2017-05-18T01:23:40.204Z,1000.77
2017-05-18T01:24:20.693Z,1000.74
2017-05-18T01:25:01.185Z,1000.69
2017-05-18T01:25:41.674Z,1000.72
2017-05-18T01:26:22.172Z,1000.73
2017-05-18T01:27:02.661Z,1000.75
2017-05-18T01:27:43.156Z,1000.73
2017-05-18T01:28:23.644Z,1000.72
2017-05-18T01:29:04.134Z,1000.75
2017-05-18T01:29:44.625Z,1000.71
2017-05-18T01:30:25.126Z,1000.73
2017-05-18T01:31:05.653Z,1000.71
2017-05-18T01:31:47.036Z,1000.7
2017-05-18T01:32:28.357Z,1000.72
2017-05-18T01:33:08.850Z,1000.66
2017-05-18T01:33:50.179Z,1000.71
2017-05-18T01:34:31.539Z,1000.73
2017-05-18T01:35:12.677Z,1000.73
2017-05-18T01:35:53.190Z,1000.7
2017-05-18T01:36:33.681Z,1000.67
2017-05-18T01:37:14.948Z,1000.65
2017-05-18T01:37:55.454Z,1000.66
2017-05-18T01:38:35.948Z,1000.68
2017-05-18T01:39:16.436Z,1000.63
2017-05-18T01:39:56.928Z,1000.63
2017-05-18T01:40:37.426Z,1000.67
2017-05-18T01:41:18.536Z,1000.64
2017-05-18T01:41:59.022Z,1000.64
2017-05-18T01:42:39.526Z,1000.62
2017-05-18T01:43:20.010Z,1000.64
2017-05-18T01:44:00.505Z,1000.67
2017-05-18T01:44:40.996Z,1000.67
2017-05-18T01:45:21.486Z,1000.69
2017-05-18T01:46:01.985Z,1000.66
2017-05-18T01:46:43.463Z,1000.67
2017-05-18T01:47:23.950Z,1000.67
2017-05-18T01:48:04.440Z,1000.72
2017-05-18T01:48:44.939Z,1000.68
2017-05-18T01:49:25.430Z,1000.65
2017-05-18T01:50:05.926Z,1000.65
2017-05-18T01:50:46.427Z,1000.64
2017-05-18T01:51:26.913Z,1000.65
2017-05-18T01:52:08.183Z,1000.62
2017-05-18T01:52:49.257Z,1000.58
2017-05-18T01:53:30.453Z,1000.62
2017-05-18T01:54:10.935Z,1000.59
2017-05-18T01:54:51.419Z,1000.61
2017-05-18T01:55:32.846Z,1000.59
2017-05-18T01:56:13.339Z,1000.61
2017-05-18T01:56:54.464Z,1000.66
2017-05-18T01:57:34.955Z,1000.62
2017-05-18T01:58:15.458Z,1000.62
2017-05-18T01:58:55.971Z,1000.62
2017-05-18T01:59:36.478Z,1000.6
2017-05-18T02:00:16.979Z,1000.6
2017-05-18T02:00:57.451Z,1000.62
2017-05-18T02:01:37.952Z,1000.62
2017-05-18T02:02:18.461Z,1000.58
2017-05-18T02:02:58.935Z,1000.62
2017-05-18T02:03:39.423Z,1000.61
2017-05-18T02:04:19.916Z,1000.59
2017-05-18T02:05:00.425Z,1000.58
2017-05-18T02:05:40.933Z,1000.59
2017-05-18T02:06:21.436Z,1000.61
2017-05-18T02:07:01.929Z,1000.6
2017-05-18T02:07:42.493Z,1000.61
2017-05-18T02:08:22.977Z,1000.59
2017-05-18T02:09:04.178Z,1000.58
2017-05-18T02:09:44.674Z,1000.53
2017-05-18T02:10:25.169Z,1000.59
2017-05-18T02:11:05.707Z,1000.57
2017-05-18T02:11:46.154Z,1000.58
2017-05-18T02:12:26.647Z,1000.57
2017-05-18T02:13:07.135Z,1000.57
2017-05-18T02:13:47.630Z,1000.59
2017-05-18T02:14:28.134Z,1000.63
2017-05-18T02:15:08.611Z,1000.61
2017-05-18T02:15:49.105Z,1000.61
2017-05-18T02:16:29.598Z,1000.6
2017-05-18T02:17:10.091Z,1000.57
2017-05-18T02:17:50.588Z,1000.54
2017-05-18T02:18:31.101Z,1000.57
2017-05-18T02:19:11.598Z,1000.59
2017-05-18T02:19:52.098Z,1000.58
2017-05-18T02:20:32.588Z,1000.6
2017-05-18T02:21:13.084Z,1000.59
2017-05-18T02:21:53.576Z,1000.58
2017-05-18T02:22:34.071Z,1000.57
2017-05-18T02:23:14.574Z,1000.56
2017-05-18T02:23:55.068Z,1000.56
2017-05-18T02:24:36.386Z,1000.56
2017-05-18T02:25:16.884Z,1000.53
2017-05-18T02:25:57.378Z,1000.55
2017-05-18T02:26:38.794Z,1000.52
2017-05-18T02:27:19.289Z,1000.52
2017-05-18T02:27:59.784Z,1000.52
2017-05-18T02:28:40.282Z,1000.48
2017-05-18T02:29:20.766Z,1000.53
2017-05-18T02:30:01.258Z,1000.55
2017-05-18T02:31:58.898Z,1000.48
2017-05-18T02:32:39.389Z,1000.46
2017-05-18T02:33:19.892Z,1000.43
2017-05-18T02:34:00.389Z,1000.49
2017-05-18T02:34:40.887Z,1000.45
2017-05-18T02:35:22.087Z,1000.43
2017-05-18T02:36:02.593Z,1000.45
2017-05-18T02:36:43.861Z,1000.43
2017-05-18T02:37:24.358Z,1000.42
2017-05-18T02:38:04.842Z,1000.45
2017-05-18T02:38:46.091Z,1000.46
2017-05-18T02:39:26.575Z,1000.4
2017-05-18T02:40:07.888Z,1000.45
2017-05-18T02:40:48.378Z,1000.43
2017-05-18T02:41:29.878Z,1000.46
2017-05-18T02:42:11.098Z,1000.44
2017-05-18T02:42:51.573Z,1000.42
2017-05-18T02:43:32.034Z,1000.41
2017-05-18T02:44:12.511Z,1000.41
2017-05-18T02:46:30.359Z,1000.44
2017-05-18T02:47:10.846Z,1000.43
2017-05-18T02:47:51.343Z,1000.44
2017-05-18T02:48:31.831Z,1000.44
2017-05-18T02:49:12.325Z,1000.45
2017-05-18T02:49:52.826Z,1000.49
2017-05-18T02:50:33.322Z,1000.46
2017-05-18T02:51:13.810Z,1000.46
2017-05-18T02:51:54.319Z,1000.43
2017-05-18T02:52:35.427Z,1000.44
2017-05-18T02:53:15.924Z,1000.45
2017-05-18T02:53:56.416Z,1000.48
2017-05-18T02:54:36.916Z,1000.52
2017-05-18T02:55:17.405Z,1000.53
2017-05-18T02:55:58.430Z,1000.57
2017-05-18T02:56:38.930Z,1000.56
2017-05-18T02:57:20.058Z,1000.6
2017-05-18T02:58:00.560Z,1000.6
2017-05-18T02:58:41.838Z,1000.6
2017-05-18T02:59:22.333Z,1000.57
2017-05-18T03:00:02.819Z,1000.63
2017-05-18T03:00:43.327Z,1000.6
2017-05-18T03:01:23.815Z,1000.62
2017-05-18T03:02:06.567Z,1000.62
2017-05-18T03:04:04.397Z,1000.62
2017-05-18T03:04:44.804Z,1000.62
2017-05-18T03:05:25.286Z,1000.64
2017-05-18T03:06:05.751Z,1000.63
2017-05-18T03:08:33.757Z,1000.61
2017-05-18T03:09:14.250Z,1000.64
2017-05-18T03:09:54.741Z,1000.63
2017-05-18T03:10:35.240Z,1000.59
2017-05-18T03:11:15.729Z,1000.61
2017-05-18T03:11:57.199Z,1000.62
2017-05-18T03:12:38.612Z,1000.58
2017-05-18T03:13:19.099Z,1000.62
2017-05-18T03:13:59.583Z,1000.6
2017-05-18T03:14:40.073Z,1000.63
2017-05-18T03:15:20.566Z,1000.65
2017-05-18T03:16:01.058Z,1000.62
2017-05-18T03:16:41.548Z,1000.62
2017-05-18T03:17:22.031Z,1000.65
2017-05-18T03:18:02.501Z,1000.67
2017-05-18T03:18:43.925Z,1000.64
2017-05-18T03:19:24.455Z,1000.67
2017-05-18T03:20:04.961Z,1000.68
2017-05-18T03:20:45.452Z,1000.67
2017-05-18T03:21:26.617Z,1000.66
2017-05-18T03:22:07.918Z,1000.68
2017-05-18T03:22:48.378Z,1000.66
2017-05-18T03:23:28.868Z,1000.62
2017-05-18T03:24:09.353Z,1000.59
2017-05-18T03:24:49.842Z,1000.58
2017-05-18T03:25:30.339Z,1000.57
2017-05-18T03:26:10.831Z,1000.59
2017-05-18T03:26:51.317Z,1000.61
2017-05-18T03:27:31.814Z,1000.63
2017-05-18T03:28:12.305Z,1000.6
2017-05-18T03:28:52.798Z,1000.66
2017-05-18T03:29:33.293Z,1000.61
2017-05-18T03:30:13.824Z,1000.63
2017-05-18T03:30:54.324Z,1000.62
2017-05-18T03:31:35.790Z,1000.62
2017-05-18T03:32:16.299Z,1000.61
2017-05-18T03:32:56.803Z,1000.63
2017-05-18T03:33:37.303Z,1000.64
2017-05-18T03:34:17.795Z,1000.68
2017-05-18T03:34:58.293Z,1000.61
2017-05-18T03:35:38.776Z,1000.57
2017-05-18T03:36:19.261Z,1000.6
2017-05-18T03:36:59.741Z,1000.59
2017-05-18T03:37:40.217Z,1000.55
2017-05-18T03:38:20.688Z,1000.55
2017-05-18T03:39:01.800Z,1000.52
2017-05-18T03:39:42.290Z,1000.57
2017-05-18T03:40:22.805Z,1000.58
2017-05-18T03:41:03.309Z,1000.57
2017-05-18T03:41:43.798Z,1000.57
2017-05-18T03:42:24.292Z,1000.57
2017-05-18T03:43:04.781Z,1000.64
2017-05-18T03:43:45.270Z,1000.63
2017-05-18T03:44:25.763Z,1000.66
2017-05-18T03:45:06.250Z,1000.67
2017-05-18T03:45:46.746Z,1000.67
2017-05-18T03:46:27.238Z,1000.69
2017-05-18T03:47:08.629Z,1000.66
2017-05-18T03:47:49.111Z,1000.69
2017-05-18T03:48:31.518Z,1000.68
2017-05-18T03:49:12.017Z,1000.65
2017-05-18T03:49:52.506Z,1000.63
2017-05-18T03:50:32.985Z,1000.63
2017-05-18T03:51:13.491Z,1000.68
2017-05-18T03:51:54.804Z,1000.67
2017-05-18T03:52:35.301Z,1000.64
2017-05-18T03:53:16.303Z,1000.65
2017-05-18T03:53:57.528Z,1000.67
2017-05-18T03:54:38.033Z,1000.68
2017-05-18T03:55:18.538Z,1000.7
2017-05-18T03:55:59.022Z,1000.73
2017-05-18T03:56:39.489Z,1000.73
2017-05-18T03:57:19.926Z,1000.72
2017-05-18T03:58:00.462Z,1000.76
2017-05-18T03:58:40.951Z,1000.75
2017-05-18T03:59:21.441Z,1000.72
2017-05-18T04:00:01.935Z,1000.74
2017-05-18T04:00:42.422Z,1000.74
2017-05-18T04:01:22.929Z,1000.75
2017-05-18T04:02:03.423Z,1000.78
2017-05-18T04:02:43.903Z,1000.78
2017-05-18T04:03:24.405Z,1000.78
2017-05-18T04:04:04.876Z,1000.77
2017-05-18T04:04:45.366Z,1000.78
2017-05-18T04:05:26.806Z,1000.78
2017-05-18T04:06:07.284Z,1000.86
2017-05-18T04:06:47.777Z,1000.87
2017-05-18T04:07:29.030Z,1000.88
2017-05-18T04:09:41.874Z,1000.84
2017-05-18T04:10:22.284Z,1000.81
2017-05-18T04:12:34.987Z,1000.9
2017-05-18T04:13:15.480Z,1000.93
2017-05-18T04:13:55.985Z,1000.93
2017-05-18T04:14:36.478Z,1000.95
2017-05-18T04:15:17.970Z,1000.95
2017-05-18T04:15:58.455Z,1000.95
2017-05-18T04:16:39.501Z,1000.96
2017-05-18T04:17:19.989Z,1000.97
2017-05-18T04:18:00.480Z,1000.95
2017-05-18T04:18:41.699Z,1000.94
2017-05-18T04:19:22.198Z,1000.95
2017-05-18T04:20:03.500Z,1000.97
2017-05-18T04:20:45.057Z,1000.95
2017-05-18T04:21:26.377Z,1000.97
2017-05-18T04:22:06.877Z,1000.97
2017-05-18T04:22:47.357Z,1001.01
2017-05-18T04:23:27.849Z,1000.96
2017-05-18T04:24:08.366Z,1000.96
2017-05-18T04:24:49.388Z,1000.95
2017-05-18T04:25:29.890Z,1000.94
2017-05-18T04:26:11.301Z,1001
2017-05-18T04:26:51.789Z,1001.03
2017-05-18T04:27:32.284Z,1001.01
2017-05-18T04:28:13.704Z,1001.04
2017-05-18T04:28:54.188Z,1001.02
2017-05-18T04:29:34.696Z,1001.03
2017-05-18T04:30:15.184Z,1001.06
2017-05-18T04:30:55.673Z,1001.08
2017-05-18T04:31:36.170Z,1001.06
2017-05-18T04:32:16.662Z,1001.1
2017-05-18T04:32:57.147Z,1001.1
2017-05-18T04:33:37.670Z,1001.08
2017-05-18T04:34:18.162Z,1001.09
2017-05-18T04:34:58.652Z,1001.06
2017-05-18T04:35:39.153Z,1001.07
2017-05-18T04:38:07.113Z,1001.17
2017-05-18T04:38:47.591Z,1001.14
2017-05-18T04:39:28.051Z,1001.14
2017-05-18T04:40:08.504Z,1001.17
2017-05-18T04:42:36.444Z,1001.23
2017-05-18T04:43:16.925Z,1001.27
2017-05-18T04:43:57.427Z,1001.31
2017-05-18T04:44:37.945Z,1001.3
2017-05-18T04:45:18.439Z,1001.37
2017-05-18T04:45:58.947Z,1001.34
2017-05-18T04:46:39.428Z,1001.32
2017-05-18T04:47:19.914Z,1001.36
2017-05-18T04:48:00.407Z,1001.37
2017-05-18T04:48:40.897Z,1001.38
2017-05-18T04:49:21.424Z,1001.38
2017-05-18T04:50:01.918Z,1001.32
2017-05-18T04:50:42.409Z,1001.34
2017-05-18T04:51:22.910Z,1001.34
2017-05-18T04:52:03.387Z,1001.31
2017-05-18T04:52:43.885Z,1001.36
2017-05-18T04:53:24.385Z,1001.36
2017-05-18T04:54:04.880Z,1001.35
2017-05-18T04:54:45.377Z,1001.41
2017-05-18T04:55:25.871Z,1001.41
2017-05-18T04:56:06.360Z,1001.47
2017-05-18T04:56:46.841Z,1001.41
2017-05-18T04:57:27.335Z,1001.41
2017-05-18T04:58:07.860Z,1001.42
2017-05-18T04:58:48.367Z,1001.44
2017-05-18T04:59:28.852Z,1001.42
2017-05-18T05:00:09.330Z,1001.49
2017-05-18T05:00:49.783Z,1001.48
2017-05-18T05:01:31.118Z,1001.46
2017-05-18T05:03:28.744Z,1001.53
2017-05-18T05:04:09.252Z,1001.5
2017-05-18T05:04:49.734Z,1001.5
2017-05-18T05:05:30.224Z,1001.54
2017-05-18T05:06:10.730Z,1001.52
2017-05-18T05:06:51.230Z,1001.53
2017-05-18T05:07:31.715Z,1001.55
2017-05-18T05:08:12.212Z,1001.55
2017-05-18T05:08:52.703Z,1001.56
2017-05-18T05:09:33.201Z,1001.53
2017-05-18T05:10:13.688Z,1001.59
2017-05-18T05:10:54.188Z,1001.58
2017-05-18T05:11:34.666Z,1001.58
2017-05-18T05:12:15.171Z,1001.6
2017-05-18T05:12:55.647Z,1001.58
2017-05-18T05:13:36.157Z,1001.56
2017-05-18T05:14:16.649Z,1001.58
2017-05-18T05:14:57.139Z,1001.57
2017-05-18T05:15:37.632Z,1001.57
2017-05-18T05:16:18.126Z,1001.61
2017-05-18T05:16:58.605Z,1001.62
2017-05-18T05:17:39.110Z,1001.61
2017-05-18T05:18:19.548Z,1001.6
2017-05-18T05:19:00.012Z,1001.61
2017-05-18T05:19:40.510Z,1001.61
2017-05-18T05:20:20.995Z,1001.61
2017-05-18T05:21:01.508Z,1001.63
2017-05-18T05:21:41.985Z,1001.65
2017-05-18T05:22:22.478Z,1001.64
2017-05-18T05:23:02.978Z,1001.69
2017-05-18T05:23:43.480Z,1001.71
2017-05-18T05:24:23.984Z,1001.75
2017-05-18T05:25:04.485Z,1001.79
2017-05-18T05:25:44.962Z,1001.75
2017-05-18T05:26:25.391Z,1001.75
2017-05-18T05:28:17.967Z,1001.72
2017-05-18T05:28:58.436Z,1001.71
2017-05-18T05:29:38.930Z,1001.73
2017-05-18T05:30:19.438Z,1001.72
2017-05-18T05:30:59.909Z,1001.78
2017-05-18T05:31:42.020Z,1001.79
2017-05-18T05:32:22.482Z,1001.79
2017-05-18T05:33:02.963Z,1001.8
2017-05-18T05:33:43.425Z,1001.78
2017-05-18T05:34:23.876Z,1001.82
2017-05-18T05:35:04.383Z,1001.81
2017-05-18T05:35:44.947Z,1001.79
2017-05-18T05:36:25.522Z,1001.78
2017-05-18T05:37:06.016Z,1001.79
2017-05-18T05:37:46.484Z,1001.81
2017-05-18T05:38:27.684Z,1001.79
2017-05-18T05:39:08.214Z,1001.82
2017-05-18T05:39:48.781Z,1001.81
2017-05-18T05:40:29.258Z,1001.81
2017-05-18T05:41:09.759Z,1001.85
2017-05-18T05:41:50.273Z,1001.84
2017-05-18T05:42:30.763Z,1001.83
2017-05-18T05:43:11.255Z,1001.87
2017-05-18T05:43:51.782Z,1001.84
2017-05-18T05:44:32.364Z,1001.89
2017-05-18T05:45:13.438Z,1001.85
2017-05-18T05:45:53.918Z,1001.86
2017-05-18T05:46:34.407Z,1001.79
2017-05-18T05:47:14.897Z,1001.83
2017-05-18T05:47:55.385Z,1001.89
2017-05-18T05:48:35.886Z,1001.87
2017-05-18T05:49:16.377Z,1001.87
2017-05-18T05:49:56.864Z,1001.91
2017-05-18T05:50:37.361Z,1001.9
2017-05-18T05:51:17.855Z,1001.94
2017-05-18T05:51:58.347Z,1001.91
2017-05-18T05:52:38.836Z,1001.94
2017-05-18T05:53:19.342Z,1001.94
2017-05-18T05:53:59.852Z,1001.91
2017-05-18T05:54:40.347Z,1001.94
2017-05-18T05:55:20.841Z,1001.97
2017-05-18T05:56:01.324Z,1001.93
2017-05-18T05:56:41.821Z,1001.93
2017-05-18T05:57:22.313Z,1001.99
2017-05-18T05:58:02.813Z,1001.97
2017-05-18T05:58:43.305Z,1001.94
2017-05-18T05:59:23.801Z,1001.96
2017-05-18T06:00:04.297Z,1001.95
2017-05-18T06:00:44.783Z,1001.95
2017-05-18T06:01:26.035Z,1001.98
2017-05-18T06:02:06.529Z,1001.95
2017-05-18T06:02:47.018Z,1001.99
2017-05-18T06:03:27.502Z,1001.99
2017-05-18T06:04:07.993Z,1001.98
2017-05-18T06:04:48.487Z,1002.02
2017-05-18T06:05:28.978Z,1002.04
2017-05-18T06:06:09.463Z,1002.08
2017-05-18T06:06:49.898Z,1002.08
2017-05-18T06:07:30.383Z,1002.1
2017-05-18T06:08:10.839Z,1002.07
2017-05-18T06:08:51.312Z,1002.08
2017-05-18T06:09:32.661Z,1002.03
2017-05-18T06:10:13.122Z,1002.01
2017-05-18T06:10:53.615Z,1002.02
2017-05-18T06:11:34.072Z,1002.11
2017-05-18T06:12:14.541Z,1002.16
2017-05-18T06:12:54.990Z,1002.12
2017-05-18T06:13:35.436Z,1002.1
2017-05-18T06:14:15.900Z,1002.1
2017-05-18T06:14:56.358Z,1002.04
2017-05-18T06:15:37.752Z,1002.05
2017-05-18T06:16:18.850Z,1002.01
2017-05-18T06:16:59.365Z,1002.04
2017-05-18T06:18:56.949Z,1002.01
2017-05-18T06:19:37.469Z,1002
2017-05-18T06:20:18.519Z,1002
2017-05-18T06:20:59.041Z,1001.99
2017-05-18T06:21:39.539Z,1002.09
2017-05-18T06:22:20.023Z,1002.1
2017-05-18T06:23:00.513Z,1002.13
2017-05-18T06:23:41.012Z,1002.16
2017-05-18T06:24:21.535Z,1002.17
2017-05-18T06:25:02.018Z,1002.25
2017-05-18T06:25:42.555Z,1002.2
2017-05-18T06:26:23.035Z,1002.15
2017-05-18T06:27:03.542Z,1002.24
2017-05-18T06:27:44.040Z,1002.21
2017-05-18T06:28:24.535Z,1002.2
2017-05-18T06:29:05.023Z,1002.29
2017-05-18T06:29:45.527Z,1002.37
2017-05-18T06:30:26.013Z,1002.35
2017-05-18T06:31:06.591Z,1002.37
2017-05-18T06:31:47.174Z,1002.53
2017-05-18T06:32:27.664Z,1002.53
2017-05-18T06:33:08.148Z,1002.62
2017-05-18T06:33:48.630Z,1002.57
2017-05-18T06:34:29.660Z,1002.6
2017-05-18T06:35:10.132Z,1002.68
2017-05-18T06:35:50.687Z,1002.6
2017-05-18T06:36:31.183Z,1002.63
2017-05-18T06:37:11.687Z,1002.61
2017-05-18T06:37:52.144Z,1002.62
2017-05-18T06:40:09.953Z,1002.63
2017-05-18T06:40:50.449Z,1002.58
2017-05-18T06:41:30.950Z,1002.64
2017-05-18T06:42:12.251Z,1002.69
2017-05-18T06:42:52.752Z,1002.69
2017-05-18T06:43:33.231Z,1002.64
2017-05-18T06:44:13.731Z,1002.74
2017-05-18T06:44:54.275Z,1002.69
2017-05-18T06:45:34.744Z,1002.63
2017-05-18T06:46:15.244Z,1002.67
2017-05-18T06:46:55.749Z,1002.56
2017-05-18T06:47:36.240Z,1002.68
2017-05-18T06:48:17.347Z,1002.57
2017-05-18T06:48:57.840Z,1002.56
2017-05-18T06:49:38.352Z,1002.53
2017-05-18T06:50:18.893Z,1002.53
2017-05-18T06:50:59.435Z,1002.56
2017-05-18T06:51:39.931Z,1002.62
2017-05-18T06:52:20.445Z,1002.56
2017-05-18T06:53:00.994Z,1002.62
2017-05-18T06:53:41.456Z,1002.66
2017-05-18T06:54:21.970Z,1002.65
2017-05-18T06:55:02.476Z,1002.67
2017-05-18T06:55:42.990Z,1002.62
2017-05-18T06:56:24.369Z,1002.68
2017-05-18T06:57:04.857Z,1002.61
2017-05-18T06:57:45.356Z,1002.64
2017-05-18T06:58:25.851Z,1002.54
2017-05-18T06:59:06.351Z,1002.55
2017-05-18T06:59:46.853Z,1002.52
2017-05-18T07:00:27.353Z,1002.54
2017-05-18T07:01:07.885Z,1002.53
2017-05-18T07:01:48.369Z,1002.49
2017-05-18T07:02:28.875Z,1002.53
2017-05-18T07:03:09.368Z,1002.51
2017-05-18T07:03:49.859Z,1002.53
2017-05-18T07:04:30.384Z,1002.47
2017-05-18T07:05:10.881Z,1002.53
2017-05-18T07:05:51.374Z,1002.54
2017-05-18T07:06:31.878Z,1002.58
2017-05-18T07:07:12.362Z,1002.63
2017-05-18T07:07:53.766Z,1002.65
2017-05-18T07:08:34.321Z,1002.58
2017-05-18T07:09:14.817Z,1002.58
2017-05-18T07:09:55.340Z,1002.56
2017-05-18T07:10:35.855Z,1002.67
2017-05-18T07:11:17.540Z,1002.73
2017-05-18T07:11:58.084Z,1002.75
2017-05-18T07:12:38.644Z,1002.69
2017-05-18T07:13:19.165Z,1002.7
2017-05-18T07:13:59.677Z,1002.75
2017-05-18T07:14:40.157Z,1002.79
2017-05-18T07:15:21.468Z,1002.82
2017-05-18T07:16:01.976Z,1002.85
2017-05-18T07:16:42.464Z,1002.86
2017-05-18T07:17:23.533Z,1002.82
2017-05-18T07:18:04.033Z,1002.84
2017-05-18T07:18:44.517Z,1002.76
2017-05-18T07:19:25.532Z,1002.74
2017-05-18T07:20:06.045Z,1002.82
2017-05-18T07:20:47.569Z,1002.85
2017-05-18T07:21:28.143Z,1002.83
2017-05-18T07:22:08.625Z,1002.82
2017-05-18T07:22:49.167Z,1002.85
2017-05-18T07:23:29.736Z,1002.94
2017-05-18T07:24:10.190Z,1002.9
2017-05-18T07:24:50.684Z,1002.88
2017-05-18T07:27:18.693Z,1002.8
2017-05-18T07:27:59.189Z,1002.73
2017-05-18T07:28:39.777Z,1002.73
2017-05-18T07:29:20.290Z,1002.66
2017-05-18T07:30:00.758Z,1002.66
2017-05-18T07:30:41.234Z,1002.64
2017-05-18T07:31:21.745Z,1002.69
2017-05-18T07:32:02.233Z,1002.69
2017-05-18T07:32:42.735Z,1002.73
2017-05-18T07:33:24.169Z,1002.72
2017-05-18T07:34:05.628Z,1002.76
2017-05-18T07:34:46.112Z,1002.71
2017-05-18T07:35:26.617Z,1002.7
2017-05-18T07:36:07.662Z,1002.66
2017-05-18T07:36:48.141Z,1002.62
2017-05-18T07:37:29.450Z,1002.7
2017-05-18T07:38:09.923Z,1002.71
2017-05-18T07:38:50.431Z,1002.69
2017-05-18T07:39:30.932Z,1002.69
2017-05-18T07:40:11.415Z,1002.78
2017-05-18T07:40:51.955Z,1002.81
2017-05-18T07:41:32.473Z,1002.87
2017-05-18T07:42:12.963Z,1002.89
2017-05-18T07:42:53.479Z,1002.91
2017-05-18T07:43:34.026Z,1002.86
2017-05-18T07:44:14.513Z,1002.94
2017-05-18T07:44:55.057Z,1002.98
2017-05-18T07:45:35.577Z,1002.93
2017-05-18T07:46:16.096Z,1002.86
2017-05-18T07:48:29.843Z,1002.78
2017-05-18T07:49:10.348Z,1002.74
2017-05-18T07:49:50.896Z,1002.75
2017-05-18T07:50:31.343Z,1002.75
2017-05-18T07:51:11.820Z,1002.74
2017-05-18T07:51:52.311Z,1002.75
2017-05-18T07:52:32.763Z,1002.78
2017-05-18T07:53:14.032Z,1002.75
2017-05-18T07:53:54.485Z,1002.76
2017-05-18T07:54:34.938Z,1002.78
2017-05-18T07:55:15.429Z,1002.8
2017-05-18T07:55:55.888Z,1002.81
2017-05-18T07:56:36.346Z,1002.79
2017-05-18T07:57:16.807Z,1002.84
2017-05-18T07:59:14.620Z,1002.75
2017-05-18T07:59:55.083Z,1002.78
2017-05-18T08:00:35.733Z,1002.76
2017-05-18T08:01:16.213Z,1002.81
2017-05-18T08:01:56.715Z,1002.79
2017-05-18T08:02:37.221Z,1002.82
2017-05-18T08:03:17.717Z,1002.85
2017-05-18T08:03:58.242Z,1002.87
2017-05-18T08:04:38.794Z,1002.84
2017-05-18T08:05:19.391Z,1002.83
2017-05-18T08:06:00.561Z,1002.86
2017-05-18T08:06:40.937Z,1002.86
2017-05-18T08:07:21.486Z,1002.82
2017-05-18T08:08:02.025Z,1002.81
2017-05-18T08:08:42.563Z,1002.82
2017-05-18T08:09:22.976Z,1002.84
2017-05-18T08:10:03.678Z,1002.81
2017-05-18T08:10:43.974Z,1002.8
2017-05-18T08:11:25.251Z,1002.81
2017-05-18T08:12:05.843Z,1002.84
2017-05-18T08:12:46.886Z,1002.84
2017-05-18T08:13:27.478Z,1002.87
2017-05-18T08:14:07.863Z,1002.89
2017-05-18T08:14:48.394Z,1002.9
2017-05-18T08:15:28.891Z,1002.91
2017-05-18T08:16:09.407Z,1002.9
2017-05-18T08:16:50.133Z,1002.89
2017-05-18T08:17:30.434Z,1002.87
2017-05-18T08:18:10.937Z,1002.89
2017-05-18T08:18:51.374Z,1002.94
2017-05-18T08:19:31.894Z,1002.92
2017-05-18T08:20:12.325Z,1002.98
2017-05-18T08:20:52.810Z,1002.99
2017-05-18T08:21:33.304Z,1002.96
2017-05-18T08:22:13.852Z,1002.97
2017-05-18T08:22:55.021Z,1002.97
2017-05-18T08:23:35.615Z,1002.96
2017-05-18T08:24:16.091Z,1002.96
2017-05-18T08:24:56.770Z,1003.01
2017-05-18T08:25:37.129Z,1002.92
2017-05-18T08:26:18.364Z,1002.93
2017-05-18T08:26:58.715Z,1003.02
2017-05-18T08:27:39.183Z,1002.94
2017-05-18T08:28:19.765Z,1002.98
2017-05-18T08:29:01.032Z,1003.07
2017-05-18T08:29:42.384Z,1003
2017-05-18T08:30:23.761Z,1003.07
2017-05-18T08:31:04.266Z,1003.06
2017-05-18T08:33:22.395Z,1003.01
2017-05-18T08:34:02.847Z,1003.02
2017-05-18T08:34:43.346Z,1003.05
2017-05-18T08:35:23.849Z,1003.1
2017-05-18T08:36:04.330Z,1003.11
2017-05-18T08:36:44.830Z,1003.1
2017-05-18T08:37:25.352Z,1003.1